createdAt,value
2017-11-22T00:01:42.590Z,37.20
2017-11-22T00:04:09.178Z,36.40
2017-11-22T00:06:35.642Z,38.13
2017-11-22T00:09:02.344Z,34.10
2017-11-22T00:11:28.835Z,41.67
2017-11-22T00:13:56.309Z,39.30
2017-11-22T00:16:22.705Z,39.40
2017-11-22T00:18:49.207Z,38.57
2017-11-22T00:21:15.695Z,36.33
2017-11-22T00:23:42.316Z,37.63
2017-11-22T00:26:10.302Z,39.97
2017-11-22T00:28:36.866Z,29.83
2017-11-22T00:31:05.175Z,35.40
2017-11-22T00:33:33.177Z,37.10
2017-11-22T00:35:59.740Z,42.80
2017-11-22T00:38:26.170Z,39.83
2017-11-22T00:40:52.623Z,38.63
2017-11-22T00:43:19.600Z,32.40
2017-11-22T00:45:46.286Z,34.60
2017-11-22T00:48:12.857Z,30.37
2017-11-22T00:50:40.003Z,35.27
2017-11-22T00:53:06.537Z,32.17
2017-11-22T00:55:32.991Z,29.40
2017-11-22T00:58:00.503Z,28.97
2017-11-22T01:00:27.079Z,28.83
2017-11-22T01:02:53.676Z,32.20
2017-11-22T01:05:20.215Z,26.07
2017-11-22T01:07:46.678Z,31.77
2017-11-22T01:10:13.309Z,25.77
2017-11-22T01:12:39.822Z,25.70
2017-11-22T01:15:06.335Z,24.17
2017-11-22T01:17:32.872Z,21.27
2017-11-22T01:19:59.473Z,30.77
2017-11-22T01:22:26.032Z,22.57
2017-11-22T01:24:52.544Z,18.03
2017-11-22T01:27:19.184Z,22.10
2017-11-22T01:29:45.614Z,20.97
2017-11-22T01:32:12.978Z,20.53
2017-11-22T01:34:39.578Z,23.40
2017-11-22T01:37:06.889Z,17.63
2017-11-22T01:39:33.349Z,22.17
2017-11-22T01:41:59.868Z,17.80
2017-11-22T01:44:26.589Z,20.97
2017-11-22T01:46:53.184Z,15.70
2017-11-22T01:49:19.831Z,19.80
2017-11-22T01:51:46.347Z,13.10
2017-11-22T01:54:13.073Z,12.30
2017-11-22T01:56:39.574Z,16.00
2017-11-22T01:59:06.111Z,16.00
2017-11-22T02:01:32.547Z,15.40
2017-11-22T02:03:59.153Z,12.10
2017-11-22T02:06:25.577Z,13.37
2017-11-22T02:08:52.144Z,11.83
2017-11-22T02:11:18.738Z,10.90
2017-11-22T02:13:45.930Z,14.77
2017-11-22T02:16:12.449Z,16.10
2017-11-22T02:18:38.875Z,14.00
2017-11-22T02:21:05.311Z,11.73
2017-11-22T02:23:31.791Z,13.27
2017-11-22T02:25:58.554Z,10.50
2017-11-22T02:28:24.956Z,14.60
2017-11-22T02:30:52.102Z,9.20
2017-11-22T02:33:18.638Z,10.27
2017-11-22T02:35:45.051Z,12.80
2017-11-22T02:38:11.453Z,11.40
2017-11-22T02:40:37.856Z,9.90
2017-11-22T02:43:04.967Z,9.53
2017-11-22T02:45:31.637Z,7.07
2017-11-22T02:47:58.115Z,6.50
2017-11-22T02:50:24.579Z,11.73
2017-11-22T02:52:51.011Z,6.67
2017-11-22T02:55:17.490Z,8.47
2017-11-22T02:57:44.089Z,9.07
2017-11-22T03:00:10.697Z,6.67
2017-11-22T03:02:37.246Z,7.00
2017-11-22T03:05:04.013Z,6.40
2017-11-22T03:07:30.497Z,8.40
2017-11-22T03:09:57.674Z,9.37
2017-11-22T03:12:24.030Z,7.80
2017-11-22T03:14:50.405Z,8.00
2017-11-22T03:17:16.975Z,6.50
2017-11-22T03:19:43.434Z,7.90
2017-11-22T03:22:09.754Z,5.03
2017-11-22T03:24:36.135Z,7.10
2017-11-22T03:27:03.453Z,7.73
2017-11-22T03:29:29.860Z,4.27
2017-11-22T03:31:57.169Z,6.80
2017-11-22T03:34:23.629Z,5.63
2017-11-22T03:36:50.908Z,5.27
2017-11-22T03:39:17.398Z,4.43
2017-11-22T03:41:43.851Z,3.97
2017-11-22T03:44:10.310Z,6.30
2017-11-22T03:46:36.804Z,6.63
2017-11-22T03:49:04.964Z,5.30
2017-11-22T03:51:37.417Z,8.40
2017-11-22T03:54:03.917Z,16.57
2017-11-22T03:56:31.050Z,6.60
2017-11-22T03:58:57.629Z,7.83
2017-11-22T04:01:24.115Z,9.20
2017-11-22T04:03:51.625Z,11.90
2017-11-22T04:06:18.255Z,12.47
2017-11-22T04:08:45.379Z,16.83
2017-11-22T04:11:12.174Z,16.60
2017-11-22T04:13:38.646Z,15.83
2017-11-22T04:16:05.089Z,33.67
2017-11-22T04:18:31.525Z,23.33
2017-11-22T04:20:58.571Z,31.27
2017-11-22T04:23:25.079Z,27.80
2017-11-22T04:25:51.939Z,35.17
2017-11-22T04:28:18.542Z,42.27
2017-11-22T04:30:44.986Z,44.43
2017-11-22T04:33:11.469Z,59.33
2017-11-22T04:35:38.099Z,56.00
2017-11-22T04:38:04.582Z,65.73
2017-11-22T04:40:31.078Z,82.10
2017-11-22T04:42:58.481Z,76.53
2017-11-22T04:48:21.887Z,76.17
2017-11-22T04:50:48.628Z,77.73
2017-11-22T04:53:15.277Z,89.33
2017-11-22T04:55:45.021Z,87.57
2017-11-22T04:58:11.578Z,100.23
2017-11-22T05:00:38.545Z,100.10
2017-11-22T05:03:05.161Z,98.57
2017-11-22T05:05:31.641Z,93.50
2017-11-22T05:07:59.065Z,88.70
2017-11-22T05:10:27.901Z,88.07
2017-11-22T05:12:54.418Z,91.80
2017-11-22T05:15:22.703Z,96.17
2017-11-22T05:17:53.903Z,78.27
2017-11-22T05:20:21.791Z,75.57
2017-11-22T05:22:48.349Z,82.97
2017-11-22T05:25:14.979Z,88.07
2017-11-22T05:27:42.618Z,92.23
2017-11-22T05:30:09.057Z,87.70
2017-11-22T05:32:36.669Z,90.93
2017-11-22T05:35:03.477Z,95.50
2017-11-22T05:37:30.510Z,88.97
2017-11-22T05:39:57.256Z,88.67
2017-11-22T05:42:23.927Z,90.83
2017-11-22T05:44:50.633Z,78.27
2017-11-22T05:47:17.280Z,88.07
2017-11-22T05:49:43.916Z,76.87
2017-11-22T05:52:10.454Z,76.57
2017-11-22T05:54:37.227Z,89.60
2017-11-22T05:57:05.555Z,79.57
2017-11-22T05:59:32.413Z,81.93
2017-11-22T06:01:59.231Z,69.37
2017-11-22T06:04:25.769Z,61.57
2017-11-22T06:06:52.238Z,74.77
2017-11-22T06:09:19.659Z,65.23
2017-11-22T06:11:46.101Z,56.90
2017-11-22T06:14:12.572Z,73.77
2017-11-22T06:16:39.140Z,53.97
2017-11-22T06:19:08.209Z,57.87
2017-11-22T06:21:34.696Z,56.37
2017-11-22T06:24:01.422Z,48.23
2017-11-22T06:26:28.716Z,37.20
2017-11-22T06:28:55.158Z,47.17
2017-11-22T06:31:21.649Z,50.40
2017-11-22T06:33:49.001Z,45.60
2017-11-22T06:36:15.861Z,52.53
2017-11-22T06:38:42.767Z,49.60
2017-11-22T06:41:09.408Z,41.87
2017-11-22T06:43:35.985Z,50.03
2017-11-22T06:46:03.413Z,44.10
2017-11-22T06:48:29.989Z,36.30
2017-11-22T06:50:56.661Z,44.77
2017-11-22T06:53:23.240Z,37.67
2017-11-22T06:55:50.048Z,44.00
2017-11-22T06:58:16.673Z,39.13
2017-11-22T07:00:44.357Z,50.43
2017-11-22T07:03:10.779Z,45.50
2017-11-22T07:05:37.189Z,38.20
2017-11-22T07:08:03.725Z,34.43
2017-11-22T07:10:30.217Z,35.80
2017-11-22T07:12:56.754Z,34.37
2017-11-22T07:15:23.297Z,37.43
2017-11-22T07:17:49.935Z,38.90
2017-11-22T07:20:16.526Z,39.30
2017-11-22T07:22:43.762Z,39.77
2017-11-22T07:25:10.313Z,43.13
2017-11-22T07:27:36.832Z,35.40
2017-11-22T07:30:03.673Z,43.07
2017-11-22T07:32:30.186Z,33.20
2017-11-22T07:34:57.538Z,42.33
2017-11-22T07:37:30.069Z,41.33
2017-11-22T07:39:56.470Z,39.60
2017-11-22T07:42:22.905Z,36.37
2017-11-22T07:44:50.454Z,30.43
2017-11-22T07:47:17.921Z,32.23
2017-11-22T07:49:45.186Z,27.63
2017-11-22T07:52:14.862Z,29.53
2017-11-22T07:54:42.250Z,29.27
2017-11-22T07:57:09.817Z,28.13
2017-11-22T07:59:37.576Z,27.67
2017-11-22T08:02:04.388Z,42.00
2017-11-22T08:04:31.064Z,33.97
2017-11-22T08:06:57.586Z,30.00
2017-11-22T08:09:24.916Z,32.87
2017-11-22T08:11:51.383Z,41.70
2017-11-22T08:14:17.966Z,23.53
2017-11-22T08:16:44.669Z,24.97
2017-11-22T08:19:11.632Z,35.07
2017-11-22T08:21:38.244Z,36.20
2017-11-22T08:24:04.685Z,28.70
2017-11-22T08:26:31.259Z,28.57
2017-11-22T08:28:57.674Z,31.07
2017-11-22T08:31:25.005Z,32.57
2017-11-22T08:33:51.530Z,24.27
2017-11-22T08:36:17.979Z,28.47
2017-11-22T08:38:44.506Z,32.43
2017-11-22T08:41:10.979Z,23.33
2017-11-22T08:43:44.371Z,27.63
2017-11-22T08:46:10.962Z,30.57
2017-11-22T08:48:37.447Z,30.33
2017-11-22T08:51:04.006Z,26.53
2017-11-22T08:53:31.026Z,31.53
2017-11-22T08:56:04.601Z,25.37
2017-11-22T08:58:31.231Z,31.50
2017-11-22T09:00:58.694Z,26.53
2017-11-22T09:03:25.199Z,27.87
2017-11-22T09:05:57.764Z,21.33
2017-11-22T09:08:24.292Z,26.13
2017-11-22T09:10:50.797Z,29.60
2017-11-22T09:13:20.176Z,25.03
2017-11-22T09:15:46.788Z,25.57
2017-11-22T09:18:19.392Z,28.80
2017-11-22T09:20:45.825Z,25.17
2017-11-22T09:23:12.266Z,24.20
2017-11-22T09:25:38.788Z,24.30
2017-11-22T09:28:05.945Z,20.33
2017-11-22T09:30:32.340Z,25.63
2017-11-22T09:33:02.802Z,24.67
2017-11-22T09:35:30.521Z,22.97
2017-11-22T09:37:57.170Z,23.27
2017-11-22T09:40:23.703Z,28.33
2017-11-22T09:42:50.071Z,23.00
2017-11-22T09:45:16.512Z,19.87
2017-11-22T09:47:43.038Z,18.73
2017-11-22T09:50:09.770Z,16.87
2017-11-22T09:52:36.272Z,16.93
2017-11-22T09:55:02.921Z,17.93
2017-11-22T09:57:30.148Z,18.70
2017-11-22T09:59:56.686Z,14.30
2017-11-22T10:02:23.209Z,17.30
2017-11-22T10:04:49.868Z,19.77
2017-11-22T10:07:16.416Z,16.63
2017-11-22T10:09:43.714Z,16.63
2017-11-22T10:12:10.493Z,17.93
2017-11-22T10:14:37.930Z,15.73
2017-11-22T10:17:10.463Z,15.13
2017-11-22T10:19:43.010Z,16.40
2017-11-22T10:22:09.598Z,19.53
2017-11-22T10:24:42.312Z,18.57
2017-11-22T10:27:14.902Z,15.73
2017-11-22T10:29:45.308Z,18.17
2017-11-22T10:32:18.001Z,15.50
2017-11-22T10:34:44.592Z,13.30
2017-11-22T10:37:11.026Z,17.80
2017-11-22T10:39:37.487Z,13.40
2017-11-22T10:42:04.769Z,10.60
2017-11-22T10:44:31.507Z,20.13
2017-11-22T10:46:58.041Z,16.63
2017-11-22T10:49:25.473Z,19.43
2017-11-22T10:51:52.062Z,15.10
2017-11-22T10:54:18.617Z,17.27
2017-11-22T10:56:45.213Z,17.50
2017-11-22T10:59:13.026Z,15.80
2017-11-22T11:01:39.505Z,22.50
2017-11-22T11:04:05.994Z,14.40
2017-11-22T11:06:32.601Z,19.47
2017-11-22T11:08:59.088Z,18.77
2017-11-22T11:11:26.514Z,23.80
2017-11-22T11:13:53.476Z,18.20
2017-11-22T11:16:20.059Z,16.93
2017-11-22T11:18:46.542Z,19.97
2017-11-22T11:21:13.039Z,18.63
2017-11-22T11:23:40.124Z,18.80
2017-11-22T11:26:07.391Z,16.10
2017-11-22T11:28:34.382Z,17.87
2017-11-22T11:31:00.985Z,20.80
2017-11-22T11:33:28.345Z,27.33
2017-11-22T11:36:06.964Z,16.20
2017-11-22T11:38:34.332Z,18.60
2017-11-22T11:41:00.866Z,19.70
2017-11-22T11:43:29.199Z,20.03
2017-11-22T11:45:55.666Z,22.53
2017-11-22T11:48:23.024Z,22.00
2017-11-22T11:50:49.603Z,18.57
2017-11-22T11:53:15.950Z,19.40
2017-11-22T11:55:43.157Z,17.40
2017-11-22T11:58:09.622Z,21.73
2017-11-22T12:00:36.956Z,15.60
2017-11-22T12:03:03.350Z,19.50
2017-11-22T12:05:29.792Z,19.20
2017-11-22T12:07:56.125Z,21.10
2017-11-22T12:10:23.309Z,17.40
2017-11-22T12:12:51.280Z,19.83
2017-11-22T12:15:17.709Z,18.30
2017-11-22T12:17:46.724Z,27.27
2017-11-22T12:20:14.437Z,17.57
2017-11-22T12:22:43.811Z,20.63
2017-11-22T12:25:11.014Z,14.83
2017-11-22T12:27:37.588Z,18.70
2017-11-22T12:30:04.881Z,18.70
2017-11-22T12:32:31.544Z,18.03
2017-11-22T12:34:58.484Z,18.77
2017-11-22T12:37:24.953Z,18.37
2017-11-22T12:39:51.465Z,20.67
2017-11-22T12:42:17.919Z,15.47
2017-11-22T12:44:44.977Z,19.30
2017-11-22T12:47:11.507Z,15.30
2017-11-22T12:49:38.786Z,17.07
2017-11-22T12:52:05.469Z,16.70
2017-11-22T12:54:32.706Z,17.17
2017-11-22T12:56:59.383Z,36.03
2017-11-22T12:59:26.419Z,17.97
2017-11-22T13:01:53.682Z,21.77
2017-11-22T13:04:20.910Z,18.50
2017-11-22T13:06:47.578Z,15.93
2017-11-22T13:09:14.499Z,23.37
2017-11-22T13:11:41.111Z,26.37
2017-11-22T13:14:08.945Z,19.30
2017-11-22T13:16:35.662Z,17.93
2017-11-22T13:19:03.185Z,25.57
2017-11-22T13:21:29.673Z,18.20
2017-11-22T13:23:56.518Z,21.73
2017-11-22T13:26:23.182Z,21.07
2017-11-22T13:28:50.522Z,15.63
2017-11-22T13:31:17.368Z,24.67
2017-11-22T13:33:44.708Z,25.67
2017-11-22T13:36:11.407Z,24.53
2017-11-22T13:38:38.293Z,22.00
2017-11-22T13:41:05.749Z,25.83
2017-11-22T13:43:32.725Z,29.23
2017-11-22T13:45:59.303Z,24.40
2017-11-22T13:48:26.073Z,27.93
2017-11-22T13:50:52.836Z,24.30
2017-11-22T13:53:19.432Z,18.93
2017-11-22T13:55:46.125Z,26.10
2017-11-22T13:58:13.377Z,21.10
2017-11-22T14:00:41.066Z,20.00
2017-11-22T14:03:07.939Z,15.17
2017-11-22T14:05:34.449Z,19.40
2017-11-22T14:08:01.683Z,21.53
2017-11-22T14:10:29.435Z,14.00
2017-11-22T14:12:56.026Z,14.63
2017-11-22T14:15:24.087Z,14.13
2017-11-22T14:17:50.653Z,14.33
2017-11-22T14:20:17.160Z,13.03
2017-11-22T14:22:43.652Z,13.57
2017-11-22T14:25:10.138Z,14.60
2017-11-22T14:27:37.134Z,15.13
2017-11-22T14:30:03.598Z,16.90
2017-11-22T14:32:30.115Z,15.23
2017-11-22T14:34:57.783Z,16.20
2017-11-22T14:37:24.343Z,14.60
2017-11-22T14:39:50.921Z,18.80
2017-11-22T14:42:17.883Z,14.50
2017-11-22T14:44:44.556Z,16.70
2017-11-22T14:47:11.295Z,18.23
2017-11-22T14:49:38.336Z,21.53
2017-11-22T14:52:05.523Z,19.40
2017-11-22T14:54:32.991Z,20.57
2017-11-22T14:56:59.552Z,21.73
2017-11-22T14:59:27.613Z,18.17
2017-11-22T15:01:56.374Z,20.40
2017-11-22T15:04:23.314Z,22.73
2017-11-22T15:06:50.593Z,28.27
2017-11-22T15:09:17.322Z,20.93
2017-11-22T15:11:43.964Z,24.33
2017-11-22T15:14:11.343Z,29.57
2017-11-22T15:16:38.580Z,25.23
2017-11-22T15:19:05.702Z,21.27
2017-11-22T15:21:32.560Z,27.20
2017-11-22T15:23:59.179Z,26.40
2017-11-22T15:26:25.941Z,25.50
2017-11-22T15:28:53.756Z,22.90
2017-11-22T15:31:20.888Z,27.00
2017-11-22T15:33:47.631Z,25.80
2017-11-22T15:36:14.138Z,24.03
2017-11-22T15:38:40.618Z,27.97
2017-11-22T15:41:07.759Z,26.23
2017-11-22T15:43:35.213Z,30.27
2017-11-22T15:46:01.735Z,27.10
2017-11-22T15:48:28.183Z,25.17
2017-11-22T15:50:55.010Z,27.67
2017-11-22T15:53:21.708Z,26.20
2017-11-22T15:55:48.349Z,30.53
2017-11-22T15:58:14.931Z,30.13
2017-11-22T16:00:41.446Z,33.20
2017-11-22T16:03:08.225Z,30.20
2017-11-22T16:05:35.141Z,30.73
2017-11-22T16:08:04.713Z,38.73
2017-11-22T16:10:31.882Z,39.27
2017-11-22T16:12:58.361Z,36.13
2017-11-22T16:15:25.360Z,39.07
2017-11-22T16:17:51.932Z,42.80
2017-11-22T16:20:19.447Z,38.90
2017-11-22T16:22:46.973Z,45.07
2017-11-22T16:25:17.013Z,38.50
2017-11-22T16:27:44.248Z,40.10
2017-11-22T16:30:11.104Z,44.17
2017-11-22T16:32:38.591Z,41.10
2017-11-22T16:35:05.969Z,47.27
2017-11-22T16:37:33.596Z,49.13
2017-11-22T16:40:01.917Z,47.50
2017-11-22T16:42:29.516Z,45.27
2017-11-22T16:44:56.022Z,45.20
2017-11-22T16:47:23.936Z,43.40
2017-11-22T16:49:51.132Z,44.83
2017-11-22T16:52:17.676Z,43.30
2017-11-22T16:54:44.248Z,43.33
2017-11-22T16:57:11.649Z,37.63
2017-11-22T16:59:39.320Z,43.90
2017-11-22T17:02:05.745Z,38.93
2017-11-22T17:04:32.638Z,46.00
2017-11-22T17:06:59.123Z,51.03
2017-11-22T17:09:25.745Z,38.40
2017-11-22T17:11:53.009Z,46.73
2017-11-22T17:14:19.933Z,55.03
2017-11-22T17:16:48.322Z,43.50
2017-11-22T17:19:14.991Z,33.30
2017-11-22T17:21:41.850Z,40.73
2017-11-22T17:24:08.345Z,39.57
2017-11-22T17:26:34.844Z,40.50
2017-11-22T17:29:02.457Z,33.70
2017-11-22T17:31:29.160Z,47.27
2017-11-22T17:33:55.815Z,39.20
2017-11-22T17:36:22.464Z,41.33
2017-11-22T17:38:49.715Z,35.13
2017-11-22T17:41:16.390Z,43.00
2017-11-22T17:43:42.940Z,34.97
2017-11-22T17:46:09.960Z,35.60
2017-11-22T17:48:36.424Z,40.27
2017-11-22T17:51:03.609Z,36.90
2017-11-22T17:53:30.762Z,34.57
2017-11-22T17:55:57.152Z,38.97
2017-11-22T17:58:23.876Z,36.73
2017-11-22T18:00:50.491Z,33.03
2017-11-22T18:03:17.751Z,34.60
2017-11-22T18:05:45.503Z,38.50
2017-11-22T18:08:11.981Z,41.17
2017-11-22T18:10:38.370Z,40.70
2017-11-22T18:13:04.969Z,46.90
2017-11-22T18:15:32.315Z,36.60
2017-11-22T18:18:00.749Z,39.53
2017-11-22T18:20:28.272Z,44.13
2017-11-22T18:22:54.967Z,37.57
2017-11-22T18:25:21.474Z,42.07
2017-11-22T18:27:49.059Z,39.60
2017-11-22T18:30:15.623Z,43.93
2017-11-22T18:32:42.248Z,46.87
2017-11-22T18:35:08.790Z,41.80
2017-11-22T18:37:35.668Z,35.60
2017-11-22T18:40:02.122Z,44.93
2017-11-22T18:42:28.810Z,35.53
2017-11-22T18:44:55.699Z,38.47
2017-11-22T18:47:23.033Z,40.97
2017-11-22T18:49:50.504Z,35.27
2017-11-22T18:52:17.144Z,34.80
2017-11-22T18:54:44.433Z,41.13
2017-11-22T18:57:11.675Z,39.83
2017-11-22T18:59:39.138Z,40.93
2017-11-22T19:02:07.033Z,29.17
2017-11-22T19:04:35.200Z,35.27
2017-11-22T19:07:02.424Z,37.13
2017-11-22T19:09:29.033Z,23.97
2017-11-22T19:11:55.719Z,31.60
2017-11-22T19:14:22.850Z,34.47
2017-11-22T19:16:49.364Z,32.63
2017-11-22T19:19:15.935Z,25.97
2017-11-22T19:21:42.532Z,41.00
2017-11-22T19:24:11.025Z,30.47
2017-11-22T19:26:39.161Z,27.70
2017-11-22T19:29:05.615Z,28.17
2017-11-22T19:31:32.920Z,18.77
2017-11-22T19:34:00.316Z,21.50
2017-11-22T19:36:28.987Z,21.07
2017-11-22T19:38:55.478Z,25.10
2017-11-22T19:41:23.485Z,27.07
2017-11-22T19:43:50.962Z,25.90
2017-11-22T19:46:17.769Z,26.10
2017-11-22T19:48:45.418Z,26.13
2017-11-22T19:51:12.632Z,27.30
2017-11-22T19:53:40.664Z,25.20
2017-11-22T19:56:07.696Z,27.90
2017-11-22T19:58:34.663Z,21.53
2017-11-22T20:01:02.025Z,27.27
2017-11-22T20:03:28.500Z,27.07
2017-11-22T20:05:55.015Z,30.83
2017-11-22T20:08:25.278Z,33.53
2017-11-22T20:10:51.833Z,27.70
2017-11-22T20:13:18.638Z,24.23
2017-11-22T20:15:45.089Z,22.20
2017-11-22T20:18:11.803Z,26.30
2017-11-22T20:20:38.274Z,28.63
2017-11-22T20:23:04.826Z,29.50
2017-11-22T20:25:31.675Z,25.70
2017-11-22T20:27:58.625Z,26.10
2017-11-22T20:30:25.156Z,28.87
2017-11-22T20:32:51.624Z,25.90
2017-11-22T20:35:18.064Z,25.13
2017-11-22T20:37:45.633Z,30.97
2017-11-22T20:40:13.078Z,26.77
2017-11-22T20:42:40.408Z,32.10
2017-11-22T20:45:08.831Z,30.90
2017-11-22T20:47:35.874Z,21.80
2017-11-22T20:50:04.551Z,23.93
2017-11-22T20:52:31.791Z,25.30
2017-11-22T20:54:58.217Z,23.23
2017-11-22T20:57:25.228Z,20.17
2017-11-22T20:59:52.644Z,24.30
2017-11-22T21:02:19.061Z,23.17
2017-11-22T21:04:45.526Z,22.63
2017-11-22T21:07:12.870Z,24.50
2017-11-22T21:09:39.333Z,25.37
2017-11-22T21:12:05.773Z,26.27
2017-11-22T21:14:32.149Z,27.50
2017-11-22T21:16:59.201Z,27.77
2017-11-22T21:19:25.738Z,23.07
2017-11-22T21:21:52.132Z,21.00
2017-11-22T21:24:18.542Z,26.67
2017-11-22T21:26:44.912Z,23.77
2017-11-22T21:29:12.256Z,19.73
2017-11-22T21:31:41.018Z,28.03
2017-11-22T21:34:09.261Z,23.17
2017-11-22T21:36:35.682Z,21.73
2017-11-22T21:39:02.223Z,28.93
2017-11-22T21:41:28.762Z,23.40
2017-11-22T21:43:55.233Z,20.00
2017-11-22T21:46:22.572Z,23.53
2017-11-22T21:48:48.966Z,29.47
2017-11-22T21:51:16.129Z,21.27
2017-11-22T21:53:42.544Z,29.03
2017-11-22T21:56:09.487Z,26.10
2017-11-22T21:58:35.969Z,38.30
2017-11-22T22:01:02.473Z,19.57
2017-11-22T22:03:29.502Z,20.77
2017-11-22T22:05:58.195Z,23.70
2017-11-22T22:08:24.806Z,27.23
2017-11-22T22:10:51.297Z,21.80
2017-11-22T22:13:17.792Z,27.40
2017-11-22T22:15:44.312Z,25.97
2017-11-22T22:18:11.541Z,23.53
2017-11-22T22:20:38.004Z,24.40
2017-11-22T22:23:05.095Z,27.60
2017-11-22T22:25:31.551Z,20.47
2017-11-22T22:27:58.171Z,21.47
2017-11-22T22:30:25.080Z,19.00
2017-11-22T22:32:52.292Z,19.00
2017-11-22T22:35:18.945Z,26.27
2017-11-22T22:37:45.308Z,21.90
2017-11-22T22:40:11.691Z,24.70
2017-11-22T22:42:38.354Z,21.30
2017-11-22T22:45:04.974Z,23.93
2017-11-22T22:47:31.520Z,23.40
2017-11-22T22:49:57.878Z,25.13
2017-11-22T22:52:24.387Z,19.90
2017-11-22T22:54:50.973Z,21.57
2017-11-22T22:57:17.490Z,25.53
2017-11-22T22:59:44.467Z,22.20
2017-11-22T23:02:11.919Z,21.23
2017-11-22T23:04:39.492Z,29.13
2017-11-22T23:07:05.929Z,23.30
2017-11-22T23:09:32.814Z,18.90
2017-11-22T23:12:00.102Z,20.73
2017-11-22T23:14:27.152Z,20.87
2017-11-22T23:16:53.608Z,20.90
2017-11-22T23:19:20.974Z,24.83
2017-11-22T23:21:47.395Z,19.17
2017-11-22T23:24:13.900Z,19.40
2017-11-22T23:26:40.674Z,25.27
2017-11-22T23:29:08.279Z,22.93
2017-11-22T23:31:34.882Z,21.67
2017-11-22T23:34:01.696Z,20.30
2017-11-22T23:36:28.121Z,17.63
2017-11-22T23:38:54.582Z,23.00
2017-11-22T23:41:21.753Z,17.00
2017-11-22T23:43:48.114Z,19.53
2017-11-22T23:46:14.600Z,24.30
2017-11-22T23:48:40.939Z,17.53
2017-11-22T23:51:07.357Z,27.33
2017-11-22T23:56:06.981Z,13.57
2017-11-22T23:58:33.624Z,15.83
